Time;durP1;ratioP1;P1;durP2;ratioP2;P2;SDS_P1;SDS_P2;PMS_P1;PMS_P2;Temp;Humidity;BMP_temperature;BMP_pressure;BME280_temperature;BME280_humidity;BME280_pressure;Samples;Min_cycle;Max_cycle;Signal;HPM_P1;HPM_P2
2022/11/10 00:03:09;;;;;;;12.10;9.10;;;;;;;;;;5022463;28;20218;-78
2022/11/10 00:06:32;;;;;;;12.03;8.60;;;;;;;;;;5013612;28;20185;-78
2022/11/10 00:09:55;;;;;;;9.33;8.00;;;;;;;;;;5001814;28;20194;-79
2022/11/10 00:13:18;;;;;;;9.67;7.83;;;;;;;;;;5010349;28;20177;-78
2022/11/10 00:17:00;;;;;;;10.27;7.33;;;;;;;;;;5020209;23;20245;-78
2022/11/10 00:20:22;;;;;;;8.63;6.63;;;;;;;;;;4994926;28;20592;-79
2022/11/10 00:23:48;;;;;;;7.57;6.30;;;;;;;;;;4997303;28;20222;-79
2022/11/10 00:27:10;;;;;;;9.57;7.40;;;;;;;;;;5000138;28;20190;-78
2022/11/10 00:30:36;;;;;;;8.90;7.00;;;;;;;;;;4999130;28;20195;-79
2022/11/10 00:33:59;;;;;;;7.97;7.17;;;;;;;;;;4979467;28;20183;-78
2022/11/10 00:37:22;;;;;;;10.17;7.80;;;;;;;;;;4999046;28;20191;-78
2022/11/10 00:40:44;;;;;;;9.67;7.30;;;;;;;;;;4995891;28;20664;-78
2022/11/10 00:44:07;;;;;;;9.07;7.47;;;;;;;;;;4992378;28;20214;-78
2022/11/10 00:47:29;;;;;;;10.10;7.37;;;;;;;;;;4985517;28;20214;-78
2022/11/10 00:50:52;;;;;;;7.33;6.47;;;;;;;;;;4967573;28;20649;-78
2022/11/10 00:54:14;;;;;;;7.70;6.67;;;;;;;;;;4983463;28;20179;-78
2022/11/10 00:57:36;;;;;;;14.10;7.87;;;;;;;;;;4972174;28;20634;-79
2022/11/10 01:01:01;;;;;;;8.23;7.40;;;;;;;;;;4991554;28;20234;-79
2022/11/10 01:04:24;;;;;;;8.40;7.10;;;;;;;;;;4993689;28;20222;-78
2022/11/10 01:07:46;;;;;;;9.20;7.77;;;;;;;;;;4993887;28;20199;-79
2022/11/10 01:11:13;;;;;;;10.30;7.70;;;;;;;;;;5001951;28;20230;-78
2022/11/10 01:14:36;;;;;;;6.53;3.73;;;;;;;;;;4990551;28;20652;-80
2022/11/10 01:17:59;;;;;;;5.17;1.90;;;;;;;;;;5001250;28;20179;-80
2022/11/10 01:21:23;;;;;;;2.27;1.73;;;;;;;;;;5001377;28;20222;-79
2022/11/10 01:24:46;;;;;;;8.33;1.80;;;;;;;;;;5001459;28;20219;-79
2022/11/10 01:28:09;;;;;;;2.53;1.40;;;;;;;;;;5000855;28;20637;-78
2022/11/10 01:31:31;;;;;;;3.43;1.60;;;;;;;;;;5000923;28;20221;-80
2022/11/10 01:34:56;;;;;;;2.00;1.40;;;;;;;;;;4992493;28;20186;-79
2022/11/10 01:38:19;;;;;;;2.00;1.33;;;;;;;;;;5000316;28;20190;-79
2022/11/10 01:41:42;;;;;;;3.20;1.37;;;;;;;;;;4991614;28;20230;-79
2022/11/10 01:45:23;;;;;;;3.33;1.77;;;;;;;;;;5000524;28;20534;-78
2022/11/10 01:48:53;;;;;;;5.83;1.40;;;;;;;;;;4998606;28;20190;-81
2022/11/10 01:52:15;;;;;;;4.33;1.43;;;;;;;;;;4988016;28;20218;-79
2022/11/10 01:55:41;;;;;;;3.80;1.40;;;;;;;;;;4992082;28;20519;-79
2022/11/10 01:59:09;;;;;;;2.27;1.40;;;;;;;;;;4991546;28;20186;-78
2022/11/10 02:02:41;;;;;;;3.10;1.70;;;;;;;;;;5001147;28;20222;-79
2022/11/10 02:06:06;;;;;;;2.37;1.20;;;;;;;;;;5000813;28;20518;-79
2022/11/10 02:09:29;;;;;;;2.27;1.30;;;;;;;;;;4989199;28;20637;-78
2022/11/10 02:12:51;;;;;;;2.57;1.60;;;;;;;;;;5000383;28;20226;-78
2022/11/10 02:16:14;;;;;;;2.53;1.87;;;;;;;;;;4997321;28;20672;-78
2022/11/10 02:19:41;;;;;;;6.20;1.60;;;;;;;;;;5000019;28;20191;-79
2022/11/10 02:23:34;;;;;;;6.03;2.00;;;;;;;;;;4985551;28;20215;-78
2022/11/10 02:26:56;;;;;;;2.27;1.97;;;;;;;;;;4988633;28;20194;-79
2022/11/10 02:30:19;;;;;;;3.30;2.50;;;;;;;;;;5000143;28;20187;-79
2022/11/10 02:33:42;;;;;;;3.63;2.13;;;;;;;;;;5000010;28;20186;-78
2022/11/10 02:37:04;;;;;;;4.17;2.40;;;;;;;;;;5000391;28;20190;-79
2022/11/10 02:40:27;;;;;;;3.37;2.40;;;;;;;;;;4987905;28;20187;-78
2022/11/10 02:43:52;;;;;;;4.73;2.10;;;;;;;;;;4988316;28;20202;-78
2022/11/10 02:47:14;;;;;;;2.80;2.10;;;;;;;;;;4988113;28;20191;-78
2022/11/10 02:50:37;;;;;;;4.73;1.80;;;;;;;;;;5000007;28;20522;-78
2022/11/10 02:54:00;;;;;;;3.20;1.83;;;;;;;;;;4999134;28;20190;-78
2022/11/10 02:57:22;;;;;;;2.00;1.80;;;;;;;;;;4999376;28;20191;-79
2022/11/10 03:00:45;;;;;;;3.27;1.63;;;;;;;;;;4988212;28;20190;-78
2022/11/10 03:04:08;;;;;;;4.83;1.83;;;;;;;;;;5000126;28;20206;-79
2022/11/10 03:07:30;;;;;;;4.77;1.80;;;;;;;;;;4991310;28;20191;-78
2022/11/10 03:10:54;;;;;;;5.17;2.30;;;;;;;;;;4990684;28;20214;-79
2022/11/10 03:14:17;;;;;;;4.00;1.80;;;;;;;;;;4987631;28;20182;-78
2022/11/10 03:17:40;;;;;;;4.27;1.70;;;;;;;;;;4990493;28;20212;-78
2022/11/10 03:21:03;;;;;;;4.53;1.50;;;;;;;;;;4987475;28;20234;-78
2022/11/10 03:24:26;;;;;;;4.30;1.80;;;;;;;;;;4987892;28;20214;-78
2022/11/10 03:27:49;;;;;;;7.73;2.13;;;;;;;;;;4990088;28;20190;-79
2022/11/10 03:31:11;;;;;;;2.47;1.77;;;;;;;;;;5000426;28;20705;-79
2022/11/10 03:34:34;;;;;;;5.10;1.90;;;;;;;;;;4999919;28;20182;-79
2022/11/10 03:37:56;;;;;;;3.80;1.97;;;;;;;;;;5000099;28;20191;-79
2022/11/10 03:41:19;;;;;;;3.67;2.10;;;;;;;;;;4980220;28;20226;-79
2022/11/10 03:44:41;;;;;;;4.17;2.20;;;;;;;;;;4999188;28;20206;-78
2022/11/10 03:48:04;;;;;;;6.13;2.60;;;;;;;;;;4998755;28;20194;-79
2022/11/10 03:51:27;;;;;;;5.20;2.53;;;;;;;;;;4998873;28;20222;-79
2022/11/10 03:54:50;;;;;;;4.93;2.67;;;;;;;;;;4990372;28;20519;-78
2022/11/10 03:58:12;;;;;;;3.73;2.80;;;;;;;;;;4999756;28;20186;-79
2022/11/10 04:01:35;;;;;;;5.73;2.67;;;;;;;;;;4999400;28;20222;-79
2022/11/10 04:08:57;;;;;;;4.63;3.17;;;;;;;;;;4998911;28;20191;-79
2022/11/10 04:16:03;;;;;;;5.10;2.90;;;;;;;;;;4993897;28;20213;-79
2022/11/10 04:19:25;;;;;;;6.50;3.40;;;;;;;;;;4999027;28;20179;-79
2022/11/10 04:26:31;;;;;;;6.40;3.77;;;;;;;;;;4997117;28;20183;-78
2022/11/10 04:29:55;;;;;;;9.30;3.40;;;;;;;;;;5001110;28;20194;-79
2022/11/10 04:33:18;;;;;;;6.73;3.33;;;;;;;;;;4983527;28;20210;-78
2022/11/10 04:36:42;;;;;;;5.47;3.50;;;;;;;;;;4988890;28;20206;-78
2022/11/10 04:40:06;;;;;;;6.10;3.70;;;;;;;;;;5002089;28;20495;-78
2022/11/10 04:43:29;;;;;;;3.97;3.00;;;;;;;;;;5000719;28;20214;-78
2022/11/10 04:46:51;;;;;;;6.20;3.53;;;;;;;;;;5001518;28;20194;-79
2022/11/10 04:50:14;;;;;;;9.17;3.70;;;;;;;;;;5001857;28;20186;-79
2022/11/10 04:53:37;;;;;;;10.70;3.77;;;;;;;;;;4982403;28;20187;-79
2022/11/10 04:57:00;;;;;;;7.07;3.83;;;;;;;;;;4989849;28;20210;-79
2022/11/10 05:00:23;;;;;;;5.83;3.73;;;;;;;;;;5000712;28;20530;-79
2022/11/10 05:03:46;;;;;;;8.17;4.40;;;;;;;;;;4999006;28;20186;-77
2022/11/10 05:07:08;;;;;;;5.07;4.10;;;;;;;;;;4987613;28;20186;-77
2022/11/10 05:10:33;;;;;;;7.13;3.97;;;;;;;;;;5001210;28;20182;-80
2022/11/10 05:13:55;;;;;;;7.07;3.73;;;;;;;;;;4991811;28;20174;-80
2022/11/10 05:17:18;;;;;;;5.50;3.97;;;;;;;;;;5001017;28;20206;-80
2022/11/10 05:20:41;;;;;;;5.23;3.90;;;;;;;;;;5001705;28;20182;-79
2022/11/10 05:24:04;;;;;;;6.40;3.90;;;;;;;;;;5001707;28;20215;-79
2022/11/10 05:27:28;;;;;;;13.83;4.40;;;;;;;;;;5001477;28;20186;-79
2022/11/10 05:30:51;;;;;;;6.33;3.63;;;;;;;;;;4996732;28;20198;-76
2022/11/10 05:34:14;;;;;;;5.00;4.00;;;;;;;;;;4996007;28;20183;-76
2022/11/10 05:37:38;;;;;;;9.20;4.13;;;;;;;;;;4996211;28;20190;-77
2022/11/10 05:41:02;;;;;;;6.10;3.93;;;;;;;;;;4995965;28;20218;-77
2022/11/10 05:44:25;;;;;;;12.10;4.33;;;;;;;;;;4986855;28;20210;-77
2022/11/10 05:47:48;;;;;;;10.20;4.33;;;;;;;;;;4967024;28;20187;-77
2022/11/10 05:51:11;;;;;;;8.27;4.17;;;;;;;;;;4975973;28;20226;-77
2022/11/10 05:54:33;;;;;;;10.50;4.33;;;;;;;;;;4977319;28;20183;-77
2022/11/10 05:57:56;;;;;;;7.57;4.73;;;;;;;;;;4976946;28;20182;-77
2022/11/10 06:01:19;;;;;;;8.13;4.80;;;;;;;;;;4976615;28;20713;-78
2022/11/10 06:04:42;;;;;;;7.40;4.70;;;;;;;;;;4976634;28;20219;-78
2022/11/10 06:08:05;;;;;;;9.23;4.50;;;;;;;;;;4966927;28;20195;-78
2022/11/10 06:11:28;;;;;;;8.40;5.00;;;;;;;;;;4975558;28;20223;-78
2022/11/10 06:14:51;;;;;;;6.43;5.00;;;;;;;;;;4976854;28;20202;-76
2022/11/10 06:18:14;;;;;;;6.60;4.80;;;;;;;;;;4977640;28;20187;-76
2022/11/10 06:21:36;;;;;;;5.23;4.57;;;;;;;;;;4981515;28;20234;-76
2022/11/10 06:24:59;;;;;;;6.73;4.47;;;;;;;;;;4975517;28;20210;-76
2022/11/10 06:28:21;;;;;;;6.17;4.07;;;;;;;;;;4976597;28;20191;-75
2022/11/10 06:31:44;;;;;;;69.60;46.40;;;;;;;;;;4975472;28;20227;-75
2022/11/10 06:35:06;;;;;;;71.27;48.93;;;;;;;;;;4975938;28;20184;-76
2022/11/10 06:38:29;;;;;;;24.13;18.33;;;;;;;;;;4975042;28;20194;-76
2022/11/10 06:41:51;;;;;;;11.37;7.97;;;;;;;;;;4975662;28;20570;-76
2022/11/10 06:45:14;;;;;;;9.50;6.57;;;;;;;;;;4975901;28;20215;-75
2022/11/10 06:48:37;;;;;;;7.90;6.20;;;;;;;;;;4970486;28;20219;-80
2022/11/10 06:51:59;;;;;;;10.67;6.37;;;;;;;;;;5000188;28;20226;-80
2022/11/10 06:55:22;;;;;;;8.60;6.57;;;;;;;;;;5000446;28;20182;-80
2022/11/10 06:58:45;;;;;;;12.67;6.83;;;;;;;;;;4999969;28;20546;-79
2022/11/10 07:02:13;;;;;;;8.50;6.93;;;;;;;;;;5001331;28;20225;-79
2022/11/10 07:05:35;;;;;;;11.60;7.63;;;;;;;;;;5001663;28;20225;-79
2022/11/10 07:08:58;;;;;;;8.70;6.53;;;;;;;;;;5000763;28;20194;-79
2022/11/10 07:12:21;;;;;;;9.87;6.80;;;;;;;;;;4981818;28;20230;-79
2022/11/10 07:15:43;;;;;;;12.40;6.70;;;;;;;;;;4981514;28;20214;-78
2022/11/10 07:19:06;;;;;;;10.57;6.53;;;;;;;;;;4983471;28;20206;-79
2022/11/10 07:22:28;;;;;;;11.03;6.57;;;;;;;;;;4999474;28;20221;-80
2022/11/10 07:25:51;;;;;;;13.47;8.63;;;;;;;;;;4998888;28;20228;-80
2022/11/10 07:29:13;;;;;;;10.80;6.90;;;;;;;;;;4987009;28;20179;-80
2022/11/10 07:32:36;;;;;;;9.73;6.87;;;;;;;;;;4998595;28;20218;-79
2022/11/10 07:36:02;;;;;;;11.13;8.17;;;;;;;;;;4998778;28;20182;-79
2022/11/10 07:39:24;;;;;;;13.17;7.07;;;;;;;;;;4998445;28;20194;-80
2022/11/10 07:42:47;;;;;;;12.23;6.53;;;;;;;;;;4987462;28;20218;-79
2022/11/10 07:46:10;;;;;;;9.10;6.60;;;;;;;;;;4998927;28;20214;-79
2022/11/10 07:49:33;;;;;;;8.47;6.07;;;;;;;;;;5000184;28;20210;-80
2022/11/10 07:53:03;;;;;;;10.30;6.03;;;;;;;;;;4997950;28;20222;-78
2022/11/10 07:56:26;;;;;;;10.07;6.90;;;;;;;;;;4989041;28;20177;-79
2022/11/10 07:59:48;;;;;;;12.80;8.03;;;;;;;;;;4999542;28;20186;-80
2022/11/10 08:03:14;;;;;;;10.50;6.43;;;;;;;;;;4989303;28;20186;-81
2022/11/10 08:06:36;;;;;;;14.00;6.40;;;;;;;;;;5000140;28;20214;-79
2022/11/10 08:09:59;;;;;;;12.03;5.83;;;;;;;;;;4998902;28;20191;-79
2022/11/10 08:13:22;;;;;;;9.40;5.63;;;;;;;;;;4988765;28;20187;-78
2022/11/10 08:16:45;;;;;;;12.53;5.80;;;;;;;;;;4998530;28;20214;-79
2022/11/10 08:20:08;;;;;;;9.93;5.33;;;;;;;;;;4989301;28;20554;-79
2022/11/10 08:23:32;;;;;;;9.93;5.20;;;;;;;;;;4999169;28;20630;-79
2022/11/10 08:26:55;;;;;;;8.20;4.77;;;;;;;;;;4998769;28;20183;-80
2022/11/10 08:30:18;;;;;;;7.40;4.70;;;;;;;;;;4997118;28;20194;-80
2022/11/10 08:33:41;;;;;;;9.17;5.10;;;;;;;;;;4985534;28;20206;-79
2022/11/10 08:37:03;;;;;;;11.50;4.70;;;;;;;;;;4969286;28;20179;-79
2022/11/10 08:40:26;;;;;;;9.67;4.37;;;;;;;;;;4981359;28;20187;-79
2022/11/10 08:43:49;;;;;;;7.97;4.37;;;;;;;;;;4980491;28;20187;-79
2022/11/10 08:47:12;;;;;;;6.63;4.47;;;;;;;;;;4981935;28;20187;-79
2022/11/10 08:50:35;;;;;;;6.70;4.57;;;;;;;;;;4969697;28;20191;-79
2022/11/10 08:53:58;;;;;;;7.20;4.30;;;;;;;;;;4982130;28;20191;-79
2022/11/10 08:57:20;;;;;;;7.00;3.90;;;;;;;;;;4978921;28;20523;-80
2022/11/10 09:00:43;;;;;;;6.60;3.83;;;;;;;;;;4977969;28;20188;-81
2022/11/10 09:04:06;;;;;;;12.37;3.83;;;;;;;;;;4977529;28;20187;-81
2022/11/10 09:07:30;;;;;;;8.90;3.97;;;;;;;;;;4969119;28;20191;-81
2022/11/10 09:10:53;;;;;;;5.93;3.73;;;;;;;;;;4977075;28;20195;-80
2022/11/10 09:14:15;;;;;;;5.83;3.03;;;;;;;;;;4971599;28;20195;-81
2022/11/10 09:17:39;;;;;;;7.07;2.43;;;;;;;;;;4972152;28;20630;-79
2022/11/10 09:21:03;;;;;;;7.80;2.37;;;;;;;;;;4972353;28;20222;-79
2022/11/10 09:24:25;;;;;;;4.33;2.33;;;;;;;;;;4980798;28;20195;-81
2022/11/10 09:27:48;;;;;;;4.93;2.37;;;;;;;;;;4980823;28;20175;-81
2022/11/10 09:31:10;;;;;;;5.97;2.30;;;;;;;;;;4969509;28;20226;-81
2022/11/10 09:34:33;;;;;;;5.57;2.23;;;;;;;;;;5000655;28;20186;-80
2022/11/10 09:37:56;;;;;;;3.77;2.13;;;;;;;;;;4980489;28;20195;-81
2022/11/10 09:41:18;;;;;;;4.27;1.93;;;;;;;;;;4969113;28;20222;-80
2022/11/10 09:44:53;;;;;;;3.63;1.63;;;;;;;;;;4982143;28;20195;-80
2022/11/10 09:48:22;;;;;;;4.37;1.60;;;;;;;;;;4969552;28;20191;-81
2022/11/10 09:51:46;;;;;;;8.80;2.10;;;;;;;;;;4971756;28;20234;-81
2022/11/10 09:55:27;;;;;;;3.73;2.03;;;;;;;;;;4971483;28;20183;-79
2022/11/10 09:58:50;;;;;;;5.30;2.07;;;;;;;;;;4983136;28;20206;-81
2022/11/10 10:02:29;;;;;;;9.50;2.00;;;;;;;;;;4998955;28;20677;-79
2022/11/10 10:06:06;;;;;;;3.63;1.80;;;;;;;;;;4999290;28;20542;-80
2022/11/10 10:10:01;;;;;;;5.20;1.90;;;;;;;;;;4987780;28;20202;-82
2022/11/10 10:13:24;;;;;;;6.70;2.00;;;;;;;;;;4990200;28;20610;-80
2022/11/10 10:17:09;;;;;;;6.57;2.10;;;;;;;;;;4987526;28;20202;-80
2022/11/10 10:21:05;;;;;;;5.07;2.00;;;;;;;;;;4990680;28;20194;-79
2022/11/10 10:24:31;;;;;;;3.97;1.53;;;;;;;;;;4989332;28;20182;-78
2022/11/10 10:28:05;;;;;;;4.20;1.80;;;;;;;;;;4998817;28;20642;-81
2022/11/10 10:31:52;;;;;;;5.83;2.00;;;;;;;;;;4990600;28;20272;-80
2022/11/10 10:35:16;;;;;;;5.13;1.90;;;;;;;;;;4990048;28;20186;-80
2022/11/10 10:38:39;;;;;;;4.90;1.83;;;;;;;;;;4998785;28;20523;-80
2022/11/10 10:42:13;;;;;;;5.17;1.67;;;;;;;;;;4997597;28;20230;-80
2022/11/10 10:45:40;;;;;;;4.30;1.67;;;;;;;;;;4997483;28;20288;-80
2022/11/10 10:49:22;;;;;;;5.80;2.07;;;;;;;;;;4997500;28;20195;-81
2022/11/10 10:53:03;;;;;;;4.40;2.00;;;;;;;;;;4978099;28;20283;-80
2022/11/10 10:56:30;;;;;;;7.27;1.80;;;;;;;;;;4998018;28;20186;-79
2022/11/10 11:00:17;;;;;;;5.00;1.97;;;;;;;;;;4989135;28;20183;-81
2022/11/10 11:03:51;;;;;;;4.70;1.80;;;;;;;;;;4989088;28;20194;-81
2022/11/10 11:07:23;;;;;;;7.13;1.93;;;;;;;;;;4977185;28;20225;-81
2022/11/10 11:10:46;;;;;;;4.43;1.60;;;;;;;;;;4988462;28;20198;-80
2022/11/10 11:14:20;;;;;;;6.37;1.87;;;;;;;;;;4997279;28;20190;-82
2022/11/10 11:17:54;;;;;;;3.60;1.60;;;;;;;;;;4976818;28;20182;-81
2022/11/10 11:21:24;;;;;;;5.93;1.40;;;;;;;;;;4996600;28;20222;-81
2022/11/10 11:24:49;;;;;;;3.67;1.30;;;;;;;;;;4996860;28;20637;-79
2022/11/10 11:28:31;;;;;;;4.60;1.40;;;;;;;;;;4985481;28;20178;-80
2022/11/10 11:32:07;;;;;;;7.43;1.40;;;;;;;;;;4996181;28;20238;-81
2022/11/10 11:36:04;;;;;;;6.87;1.73;;;;;;;;;;4985340;28;20191;-81
2022/11/10 11:39:38;;;;;;;3.53;1.40;;;;;;;;;;4976055;28;20564;-80
2022/11/10 11:43:16;;;;;;;4.67;1.30;;;;;;;;;;4990410;28;20198;-80
2022/11/10 11:47:03;;;;;;;4.83;1.30;;;;;;;;;;4985619;28;20233;-80
2022/11/10 11:50:36;;;;;;;4.50;1.30;;;;;;;;;;4957553;28;20207;-81
2022/11/10 11:54:14;;;;;;;7.33;1.90;;;;;;;;;;4965736;28;20195;-81
2022/11/10 11:58:05;;;;;;;8.23;1.80;;;;;;;;;;4976716;28;20209;-82
2022/11/10 12:01:56;;;;;;;2.63;1.33;;;;;;;;;;4984979;28;20222;-81
2022/11/10 12:06:03;;;;;;;3.73;1.40;;;;;;;;;;4977112;28;20199;-80
2022/11/10 12:09:42;;;;;;;5.10;1.60;;;;;;;;;;4957261;28;20194;-81
2022/11/10 12:13:26;;;;;;;4.13;1.57;;;;;;;;;;4977885;28;20187;-80
2022/11/10 12:17:16;;;;;;;4.43;1.60;;;;;;;;;;4979135;28;20202;-81
2022/11/10 12:21:05;;;;;;;3.00;1.50;;;;;;;;;;4998155;23;20719;-89
2022/11/10 14:05:52;;;;;;;2.80;1.00;;;;;;;;;;5016148;28;20557;-85
2022/11/10 14:09:39;;;;;;;5.93;1.20;;;;;;;;;;5006061;28;20229;-85
2022/11/10 14:13:11;;;;;;;3.37;1.00;;;;;;;;;;5006904;28;20636;-85
2022/11/10 14:16:40;;;;;;;4.40;0.87;;;;;;;;;;5006903;28;20182;-85
2022/11/10 14:20:03;;;;;;;2.63;0.90;;;;;;;;;;5006989;28;20217;-85
2022/11/10 14:23:49;;;;;;;5.47;0.90;;;;;;;;;;5015952;28;20182;-85
2022/11/10 14:27:14;;;;;;;4.63;0.90;;;;;;;;;;5016165;28;20660;-85
2022/11/10 14:30:37;;;;;;;7.43;1.47;;;;;;;;;;5014910;28;20226;-85
2022/11/10 14:34:00;;;;;;;6.90;1.10;;;;;;;;;;5015757;28;20632;-85
2022/11/10 14:37:25;;;;;;;3.50;1.07;;;;;;;;;;5006479;28;20190;-84
2022/11/10 14:40:49;;;;;;;1.83;0.73;;;;;;;;;;5014652;28;20225;-85
2022/11/10 14:44:18;;;;;;;2.77;0.97;;;;;;;;;;5014795;28;20186;-84
2022/11/10 14:47:42;;;;;;;3.43;1.00;;;;;;;;;;5005953;28;20213;-85
2022/11/10 14:51:14;;;;;;;3.63;1.40;;;;;;;;;;5015235;28;20561;-85
2022/11/10 14:54:37;;;;;;;6.70;1.13;;;;;;;;;;5014672;28;20186;-85
2022/11/10 14:58:10;;;;;;;3.10;0.90;;;;;;;;;;5014395;28;20178;-85
2022/11/10 15:01:37;;;;;;;4.00;1.50;;;;;;;;;;5005665;28;20189;-85
2022/11/10 15:05:00;;;;;;;5.50;1.30;;;;;;;;;;5005600;28;20213;-85
2022/11/10 15:08:24;;;;;;;7.63;1.10;;;;;;;;;;5014736;28;20214;-85
2022/11/10 15:11:50;;;;;;;2.10;0.97;;;;;;;;;;5005492;28;20181;-85
2022/11/10 15:15:17;;;;;;;3.10;1.10;;;;;;;;;;5005186;28;20185;-85
2022/11/10 15:18:39;;;;;;;4.60;1.10;;;;;;;;;;5005467;28;20182;-85
2022/11/10 15:22:11;;;;;;;5.33;1.10;;;;;;;;;;5005007;28;20185;-89
2022/11/10 15:25:39;;;;;;;3.83;0.90;;;;;;;;;;5004799;28;20190;-89
2022/11/10 15:29:02;;;;;;;1.57;0.90;;;;;;;;;;5004610;28;20178;-89
2022/11/10 15:32:39;;;;;;;1.73;0.97;;;;;;;;;;5005043;28;20185;-89
2022/11/10 15:36:23;;;;;;;3.57;0.97;;;;;;;;;;5005046;28;20637;-89
2022/11/10 15:39:46;;;;;;;5.10;1.10;;;;;;;;;;5004550;28;20225;-90
2022/11/10 15:43:18;;;;;;;1.97;0.90;;;;;;;;;;5005273;28;20234;-88
2022/11/10 15:46:42;;;;;;;2.23;1.40;;;;;;;;;;5004756;28;20637;-84
2022/11/10 15:50:10;;;;;;;3.80;1.00;;;;;;;;;;5012648;28;20221;-88
2022/11/10 16:14:29;;;;;;;2.37;1.00;;;;;;;;;;4950295;29;20216;-87
2022/11/10 16:18:29;;;;;;;1.43;0.90;;;;;;;;;;4958121;28;20206;-88
2022/11/10 16:21:53;;;;;;;3.30;1.03;;;;;;;;;;4953361;28;20225;-88
2022/11/10 16:25:15;;;;;;;5.97;1.40;;;;;;;;;;4993718;28;20649;-88
2022/11/10 16:28:38;;;;;;;4.20;1.50;;;;;;;;;;4993221;28;20218;-88
2022/11/10 16:32:01;;;;;;;2.70;1.00;;;;;;;;;;4964890;28;20539;-88
2022/11/10 16:35:24;;;;;;;2.77;1.07;;;;;;;;;;4980585;28;20266;-88
2022/11/10 16:38:47;;;;;;;4.20;1.10;;;;;;;;;;4992942;28;20187;-88
2022/11/10 16:42:10;;;;;;;3.60;1.20;;;;;;;;;;4984521;28;20202;-89
2022/11/10 16:45:33;;;;;;;2.23;1.40;;;;;;;;;;4993046;28;20195;-88
2022/11/10 16:49:00;;;;;;;5.30;1.27;;;;;;;;;;4984607;28;20218;-87
2022/11/10 16:52:23;;;;;;;3.80;1.20;;;;;;;;;;4983994;28;20206;-85
2022/11/10 16:55:45;;;;;;;3.67;1.10;;;;;;;;;;5002056;28;20186;-88
2022/11/10 16:59:09;;;;;;;3.60;1.40;;;;;;;;;;4992601;28;20681;-89
2022/11/10 17:02:34;;;;;;;1.70;1.57;;;;;;;;;;4992730;28;20186;-86
2022/11/10 17:05:58;;;;;;;1.53;1.20;;;;;;;;;;4977705;28;20211;-86
2022/11/10 17:09:24;;;;;;;3.10;1.40;;;;;;;;;;4976781;28;20231;-86
2022/11/10 17:12:47;;;;;;;3.50;1.57;;;;;;;;;;4978765;28;20198;-89
2022/11/10 17:16:17;;;;;;;2.80;1.47;;;;;;;;;;4975676;28;20214;-88
2022/11/10 17:19:48;;;;;;;4.07;1.63;;;;;;;;;;5000644;28;20229;-89
2022/11/10 17:23:13;;;;;;;3.47;1.80;;;;;;;;;;4993003;28;20182;-89
2022/11/10 17:26:36;;;;;;;4.83;1.60;;;;;;;;;;4992543;28;20190;-89
2022/11/10 17:29:59;;;;;;;6.63;1.80;;;;;;;;;;4964885;28;20235;-90
2022/11/10 17:33:21;;;;;;;3.53;1.70;;;;;;;;;;4973945;28;20179;-89
2022/11/10 17:36:44;;;;;;;3.63;1.57;;;;;;;;;;4968316;28;20183;-89
2022/11/10 17:40:16;;;;;;;2.33;1.30;;;;;;;;;;4977044;28;20701;-89
2022/11/10 17:43:38;;;;;;;6.70;1.60;;;;;;;;;;4986990;28;20191;-89
2022/11/10 17:47:01;;;;;;;7.33;1.90;;;;;;;;;;4986073;28;20191;-89
2022/11/10 17:50:24;;;;;;;2.90;1.60;;;;;;;;;;4968974;28;20223;-90
2022/11/10 17:53:52;;;;;;;4.10;1.73;;;;;;;;;;4991873;28;20677;-89
2022/11/10 17:57:14;;;;;;;2.63;1.60;;;;;;;;;;4988462;28;20221;-89
2022/11/10 18:00:37;;;;;;;4.27;1.50;;;;;;;;;;4996570;28;20226;-90
2022/11/10 18:04:00;;;;;;;3.10;1.70;;;;;;;;;;4997328;28;20195;-90
2022/11/10 18:07:22;;;;;;;11.23;2.10;;;;;;;;;;4996788;28;20693;-89
2022/11/10 18:10:48;;;;;;;4.57;1.47;;;;;;;;;;4976507;28;20234;-89
2022/11/10 18:14:11;;;;;;;2.33;1.40;;;;;;;;;;4977233;28;20187;-90
2022/11/10 18:17:33;;;;;;;7.93;1.80;;;;;;;;;;4977467;28;20179;-90
2022/11/10 18:20:56;;;;;;;2.30;1.43;;;;;;;;;;5025902;23;20241;-87
2022/11/10 18:24:18;;;;;;;2.90;1.37;;;;;;;;;;5007043;28;20644;-87
2022/11/10 18:27:41;;;;;;;3.10;1.50;;;;;;;;;;5015718;28;20217;-87
2022/11/10 18:31:05;;;;;;;2.90;1.50;;;;;;;;;;5015441;28;20573;-87
2022/11/10 18:34:28;;;;;;;4.47;1.60;;;;;;;;;;5015135;28;20181;-88
2022/11/10 18:37:51;;;;;;;2.67;1.50;;;;;;;;;;5026891;28;20181;-86
2022/11/10 18:44:54;;;;;;;5.30;1.43;;;;;;;;;;5024366;28;20205;-87
2022/11/10 18:48:17;;;;;;;4.37;1.53;;;;;;;;;;5024786;28;20216;-87
2022/11/10 18:51:40;;;;;;;4.53;1.70;;;;;;;;;;5024506;28;20181;-87
2022/11/10 18:55:03;;;;;;;2.37;1.27;;;;;;;;;;5015667;28;20189;-87
2022/11/10 18:58:26;;;;;;;2.77;1.30;;;;;;;;;;5015906;28;20189;-86
2022/11/10 19:01:49;;;;;;;2.80;1.60;;;;;;;;;;5016264;28;20185;-87
2022/11/10 19:05:12;;;;;;;5.10;2.30;;;;;;;;;;5016268;28;20185;-87
2022/11/10 19:08:35;;;;;;;6.23;2.97;;;;;;;;;;5015913;28;20672;-87
2022/11/10 19:11:57;;;;;;;6.03;3.10;;;;;;;;;;5016195;28;20185;-87
2022/11/10 19:15:19;;;;;;;9.13;3.33;;;;;;;;;;5014815;28;20185;-87
2022/11/10 19:18:43;;;;;;;6.23;3.73;;;;;;;;;;5015197;28;20513;-86
2022/11/10 19:22:05;;;;;;;6.37;4.57;;;;;;;;;;5026439;28;20509;-87
2022/11/10 19:25:28;;;;;;;3.17;1.87;;;;;;;;;;5014663;28;20185;-87
2022/11/10 19:28:53;;;;;;;3.70;1.33;;;;;;;;;;5014960;28;20208;-87
2022/11/10 19:32:15;;;;;;;2.90;1.63;;;;;;;;;;5015112;28;20186;-87
2022/11/10 19:35:41;;;;;;;5.60;2.07;;;;;;;;;;5023613;28;20189;-87
2022/11/10 19:39:04;;;;;;;4.13;2.03;;;;;;;;;;5014449;28;20185;-87
2022/11/10 19:42:26;;;;;;;3.40;2.37;;;;;;;;;;5014506;28;20193;-87
2022/11/10 19:45:49;;;;;;;3.60;2.63;;;;;;;;;;5014658;28;20185;-87
2022/11/10 19:49:12;;;;;;;5.13;2.70;;;;;;;;;;5014300;28;20209;-87
2022/11/10 19:52:34;;;;;;;6.67;3.50;;;;;;;;;;5026178;28;20616;-87
2022/11/10 19:56:03;;;;;;;7.13;3.83;;;;;;;;;;5014466;28;20189;-86
2022/11/10 19:59:25;;;;;;;6.90;3.83;;;;;;;;;;5013660;28;20528;-87
2022/11/10 20:02:48;;;;;;;6.23;3.70;;;;;;;;;;5013835;28;20294;-87
2022/11/10 20:06:14;;;;;;;7.73;4.00;;;;;;;;;;5014025;28;20185;-86
2022/11/10 20:09:38;;;;;;;5.20;3.90;;;;;;;;;;5013829;28;20236;-86
2022/11/10 20:13:01;;;;;;;8.27;3.53;;;;;;;;;;5034479;28;20528;-87
2022/11/10 20:16:23;;;;;;;3.73;2.77;;;;;;;;;;5014390;28;20181;-87
2022/11/10 20:19:47;;;;;;;3.83;2.67;;;;;;;;;;5012994;28;20224;-87
2022/11/10 20:23:10;;;;;;;3.00;2.47;;;;;;;;;;5013429;28;20182;-87
2022/11/10 20:26:32;;;;;;;4.13;2.60;;;;;;;;;;5012105;28;20208;-87
2022/11/10 20:29:55;;;;;;;4.63;3.40;;;;;;;;;;5013595;28;20580;-87
2022/11/10 20:33:17;;;;;;;8.43;4.33;;;;;;;;;;5014284;28;20619;-86
2022/11/10 20:36:40;;;;;;;5.63;4.20;;;;;;;;;;5013652;28;20185;-87
2022/11/10 20:40:05;;;;;;;6.73;5.07;;;;;;;;;;5013939;28;20221;-87
2022/11/10 20:43:27;;;;;;;6.70;4.87;;;;;;;;;;5013742;28;20193;-87
2022/11/10 20:46:49;;;;;;;8.17;5.50;;;;;;;;;;5022442;28;20193;-87
2022/11/10 20:50:12;;;;;;;7.43;5.30;;;;;;;;;;5034012;28;20559;-87
2022/11/10 20:53:35;;;;;;;8.73;6.13;;;;;;;;;;5023036;28;20181;-87
2022/11/10 20:56:58;;;;;;;7.77;4.73;;;;;;;;;;5013637;28;20182;-87
2022/11/10 21:00:27;;;;;;;6.80;4.70;;;;;;;;;;5013088;28;20217;-87
2022/11/10 21:03:50;;;;;;;7.83;4.60;;;;;;;;;;5013385;28;20177;-87
2022/11/10 21:07:13;;;;;;;6.00;3.73;;;;;;;;;;5024288;28;20181;-87
2022/11/10 21:10:35;;;;;;;5.10;4.03;;;;;;;;;;5036255;28;20719;-87
2022/11/10 21:13:58;;;;;;;6.30;4.37;;;;;;;;;;5016440;28;20180;-87
2022/11/10 21:17:21;;;;;;;4.40;3.53;;;;;;;;;;5016144;28;20185;-86
2022/11/10 21:20:43;;;;;;;7.60;3.70;;;;;;;;;;5015455;28;20224;-87
2022/11/10 21:24:08;;;;;;;6.73;3.67;;;;;;;;;;5016692;28;20185;-86
2022/11/10 21:27:31;;;;;;;6.23;3.63;;;;;;;;;;5014914;28;20185;-87
2022/11/10 21:31:03;;;;;;;4.97;3.67;;;;;;;;;;5015126;28;20209;-86
2022/11/10 21:34:26;;;;;;;8.73;3.43;;;;;;;;;;5023714;28;20212;-87
2022/11/10 21:37:49;;;;;;;3.60;3.17;;;;;;;;;;5023495;28;20189;-86
2022/11/10 21:41:12;;;;;;;4.33;3.10;;;;;;;;;;5023717;28;20217;-86
2022/11/10 21:44:36;;;;;;;4.50;2.80;;;;;;;;;;5027799;28;20193;-87
2022/11/10 21:47:59;;;;;;;7.77;3.20;;;;;;;;;;5026264;28;20189;-87
2022/11/10 21:51:22;;;;;;;3.90;2.80;;;;;;;;;;5023939;28;20229;-87
2022/11/10 21:54:44;;;;;;;6.60;3.17;;;;;;;;;;5023468;28;20189;-88
2022/11/10 21:58:07;;;;;;;6.50;3.00;;;;;;;;;;5014387;28;20193;-87
2022/11/10 22:01:30;;;;;;;4.40;3.27;;;;;;;;;;5014432;28;20221;-87
2022/11/10 22:04:53;;;;;;;4.70;3.27;;;;;;;;;;5014017;28;20189;-88
2022/11/10 22:08:15;;;;;;;10.13;4.07;;;;;;;;;;5022695;28;20548;-88
2022/11/10 22:19:07;;;;;;;5.90;3.30;;;;;;;;;;5022979;28;20671;-87
2022/11/10 22:21:54;;;;;;;4.70;2.97;;;;;;;;;;5101361;27;20954;-77
2022/11/10 22:25:17;;;;;;;4.90;2.97;;;;;;;;;;5070804;28;20190;-77
2022/11/10 22:28:40;;;;;;;6.07;3.10;;;;;;;;;;5070818;28;20184;-76
2022/11/10 22:32:03;;;;;;;4.87;2.57;;;;;;;;;;5095102;28;20221;-76
2022/11/10 22:35:43;;;;;;;4.90;2.80;;;;;;;;;;5070519;28;20282;-77
2022/11/10 22:39:07;;;;;;;4.97;2.90;;;;;;;;;;5083437;28;20201;-77
2022/11/10 22:46:11;;;;;;;4.53;3.70;;;;;;;;;;5109755;28;20565;-77
2022/11/10 22:49:33;;;;;;;8.60;2.83;;;;;;;;;;5113227;28;20174;-78
2022/11/10 22:52:56;;;;;;;3.47;3.10;;;;;;;;;;5114334;28;20217;-78
2022/11/10 22:56:18;;;;;;;4.27;3.07;;;;;;;;;;5112785;28;20625;-78
2022/11/10 22:59:41;;;;;;;4.00;2.77;;;;;;;;;;5112365;28;20175;-78